• Join FlightAware (Why Join?)
  • Login
  • US Flag GB Flag 
14:03 EDT


 

Airport Tracker/Info


-or-


 

Live Flight TrackerFlight Track Log ✈ LXJ342 ✈ 30-Sep-2013 ✈ KSUS - KESN

Flight Track Log - Related Links

Times and Time Zones

All times are in EDT time to prevent confusion due to time zone crossing. See the LXJ342 flight status page for this flight to view local times or setup timezone preferences in your user account.

Time Position Orientation Groundspeed Altitude Reporting Facility
EDT Latitude Longitude Course Direction KTS MPH feet Rate Location/Type
12:30 38.6667 -90.7500 79° East 228 262 4,900  Level Gateway (St. Louis) TRACON
12:31 38.7167 -90.7500 360° North 240 276 6,800 2,580 Climbing Gateway (St. Louis) TRACON
12:32 38.7306 -90.6939 72° East 250 288 9,200 3,060 Climbing Kansas City Center
12:33 38.7367 -90.5911 86° East 279 321 12,700 3,420 Climbing Kansas City Center
12:34 38.7458 -90.4561 85° East 322 371 16,400 3,180 Climbing Kansas City Center
12:35 38.7500 -90.3261 88° East 361 415 19,300 2,340 Climbing Kansas City Center
12:36 38.7120 -89.9303 79° East  Level Estimated
12:36 38.7572 -90.1911 86° East 373 429 21,300  Level Kansas City Center
12:37 38.7642 -90.0486 86° East 398 458 23,300 2,100 Climbing Kansas City Center
12:38 38.7719 -89.8819 87° East 412 474 25,600 1,740 Climbing Kansas City Center
12:39 38.7783 -89.7328 87° East 417 480 27,000 660 Climbing Kansas City Center
12:40 38.7881 -89.5522 86° East 455 524 27,000  Level Kansas City Center
12:41 38.8097 -89.3756 81° East 467 537 27,000  Level Kansas City Center
12:42 38.8300 -89.2147 81° East 460 529 27,000  Level Kansas City Center
12:43 38.8422 -89.0519 84° East 458 527 27,000  Level Kansas City Center
12:44 38.8386 -88.8836 92° East 464 534 27,000  Level Kansas City Center
12:45 38.8364 -88.7192 91° East 465 535 27,000  Level Kansas City Center
12:46 38.8325 -88.5508 92° East 461 531 27,000  Level Kansas City Center
12:47 38.8283 -88.3861 92° East 461 531 27,000  Level Kansas City Center
12:48 38.8239 -88.2211 92° East 461 531 27,000  Level Kansas City Center
12:49 38.8167 -88.0603 93° East 460 529 27,000  Level Indianapolis Center
12:50 38.8122 -87.8961 92° East 458 527 27,000  Level Indianapolis Center
12:51 38.8067 -87.7311 92° East 459 528 27,000  Level Indianapolis Center
12:52 38.8022 -87.5647 92° East 462 532 27,000  Level Indianapolis Center
12:53 38.7969 -87.3989 92° East 462 532 27,000  Level Indianapolis Center
12:54 38.7900 -87.2353 93° East 458 527 27,000  Level Indianapolis Center
12:55 38.7850 -87.0697 92° East 459 528 27,000  Level Indianapolis Center
12:56 38.7778 -86.9050 93° East 458 527 27,000  Level Indianapolis Center
12:58 38.7714 -86.7400 93° East 458 527 27,000  Level Indianapolis Center
12:59 38.7642 -86.5431 93° East 458 527 27,000  Level Indianapolis Center
13:00 38.7572 -86.3808 93° East 454 522 27,000  Level Indianapolis Center
13:01 38.7494 -86.2161 93° East 459 528 27,000  Level Indianapolis Center
13:02 38.7422 -86.0525 93° East 460 529 27,000  Level Indianapolis Center
13:03 38.7342 -85.8836 93° East 460 529 27,000  Level Indianapolis Center
13:04 38.7269 -85.7225 93° East 457 526 27,000  Level Indianapolis Center
13:05 38.7194 -85.5614 93° East 458 527 27,000  Level Indianapolis Center
13:06 38.7100 -85.4003 94° East 457 526 27,000  Level Indianapolis Center
13:07 38.7003 -85.2092 94° East 452 520 27,000  Level Indianapolis Center
13:08 38.6919 -85.0514 94° East 449 517 27,000  Level Indianapolis Center
13:09 38.6828 -84.8908 94° East 453 521 27,000  Level Indianapolis Center
13:10 38.6744 -84.7328 94° East 450 518 27,000  Level Indianapolis Center
13:11 38.6653 -84.5714 94° East 456 525 27,000  Level Indianapolis Center
13:12 38.6544 -84.3961 94° East 451 519 27,000  Level Indianapolis Center
13:13 38.6433 -84.2356 95° East 452 520 27,000  Level Indianapolis Center
13:14 38.6225 -84.0506 98° East 452 520 27,000  Level Indianapolis Center
13:15 38.6044 -83.8914 98° East 450 518 27,000  Level Indianapolis Center
13:16 38.5872 -83.7322 98° East 451 519 27,000  Level Indianapolis Center
13:17 38.5703 -83.5786 98° East 440 506 27,000  Level Indianapolis Center
13:18 38.5519 -83.4272 99° East 432 497 27,000  Level Indianapolis Center
13:19 38.5342 -83.2756 98° East 431 496 27,000  Level Indianapolis Center
13:20 38.5164 -83.1214 98° East 435 501 27,000  Level Indianapolis Center
13:21 38.4958 -82.9467 98° East 427 491 27,000  Level Indianapolis Center
13:22 38.4778 -82.7950 99° East 430 495 27,000  Level Indianapolis Center
13:23 38.4589 -82.6439 99° East 431 496 27,000  Level Indianapolis Center
13:24 38.4406 -82.4944 99° East 426 490 27,000  Level Indianapolis Center
13:25 38.4236 -82.3511 99° East 428 493 27,000  Level Indianapolis Center
13:26 38.4047 -82.2014 99° East 430 495 27,000  Level Indianapolis Center
13:27 38.3817 -82.0206 99° East 431 496 27,000  Level Indianapolis Center
13:28 38.3622 -81.8686 99° East 435 501 27,000  Level Indianapolis Center
13:29 38.3419 -81.7158 100° East 440 506 27,000  Level Indianapolis Center
13:31 38.3172 -81.5631 102° East 444 511 27,000  Level Indianapolis Center
13:32 38.2925 -81.4103 102° East 444 511 27,000  Level Indianapolis Center
13:33 38.2631 -81.2272 102° East 443 510 27,000  Level Indianapolis Center
13:34 38.2386 -81.0750 102° East 443 510 27,000  Level Indianapolis Center
13:35 38.2128 -80.9214 102° East 446 513 27,000  Level Indianapolis Center
13:36 38.1881 -80.7642 101° East 449 517 27,000  Level Indianapolis Center
13:37 38.1619 -80.6114 102° East 448 516 27,000 -300 Level Indianapolis Center
13:38 38.1364 -80.4572 102° East 447 514 26,400 -960 Descending Indianapolis Center
13:39 38.1058 -80.2739 102° East 443 510 25,100 -720 Descending Indianapolis Center
13:40 38.0792 -80.1261 103° East 433 498 25,000 -60 Descending Indianapolis Center
13:41 38.0486 -79.9400 102° East 434 499 25,000  Level Washington Center
13:42 38.0225 -79.7908 102° East 434 499 25,000  Level Washington Center
13:43 37.9986 -79.6419 101° East 434 499 25,000  Level Washington Center
13:44 37.9722 -79.4931 103° East 434 499 25,000  Level Washington Center
13:45 37.9536 -79.3578 100° East 434 499 25,000  Level Washington Center
13:46 37.9583 -79.2025 88° East 429 494 25,000  Level Washington Center
13:47 37.9606 -79.0525 89° East 424 488 25,000  Level Washington Center
13:48 37.9608 -78.8997 90° East 424 488 25,000  Level Washington Center
13:49 37.9628 -78.7472 89° East 424 488 25,000 -840 Level Washington Center
13:50 37.9672 -78.5761 88° East 429 494 23,300 -1,020 Descending Washington Center
13:51 37.9667 -78.4286 90° East 429 494 23,000 -180 Descending Washington Center
13:52 37.9703 -78.2758 88° East 429 494 23,000  Level Washington Center
13:53 37.9650 -78.1336 93° East 438 504 23,000  Level Washington Center
13:54 37.9681 -77.9783 89° East 438 504 23,000  Level Washington Center
13:55 37.9694 -77.8044 89° East 438 504 23,000 -180 Level Washington Center
13:56 37.9700 -77.6464 90° East 438 504 22,700 -1,680 Descending Washington Center
13:57 37.9706 -77.4936 90° East 438 504 19,700 -2,940 Descending Washington Center
13:58 37.9706 -77.3539 90° East 427 491 16,800 -2,700 Descending Washington Center
13:59 37.9703 -77.2303 90° East 404 465 14,400 -1,980 Descending Washington Center
14:00 37.9697 -77.0983 90° East 386 444 13,000 -960 Descending Washington Center
14:01 37.9714 -76.9614 89° East 380 437 12,500 -1,020 Descending Washington Center
14:02 37.9917 -76.8353 78° East 380 437 11,000 -780 Descending Washington Center
14:03 38.0864 -76.7525 35° Northeast 343 395 11,000  Level Washington Center
14:04 38.1367 -76.7111 33° Northeast 373 429 11,000  Level Washington Center
14:04 38.1703 -76.6772 38° Northeast 343 395 11,000 -240 Level Washington Center
14:05 38.2144 -76.6383 35° Northeast 351 404 10,800 -600 Descending Washington Center
14:05 38.2439 -76.6042 42° Northeast 343 395 10,400 -1,320 Descending Washington Center
14:06 38.2839 -76.5731 31° Northeast 297 342 9,500 -1,800 Descending Washington Center
14:06 38.3092 -76.5389 47° Northeast 310 357 8,600 -1,920 Descending Washington Center
14:07 38.3511 -76.5078 30° Northeast 288 331 7,600 -1,620 Descending Washington Center
14:07 38.3700 -76.4922 33° Northeast 294 338 7,000 -2,100 Descending Washington Center
14:08 38.4225 -76.4425 37° Northeast 292 336 5,500 -1,920 Descending Washington Center
14:08 38.4331 -76.4292 45° Northeast 289 333 5,100 -1,920 Descending Washington Center
14:09 38.4814 -76.3847 36° Northeast 277 319 3,600 -1,740 Descending Washington Center
14:09 38.4939 -76.3717 39° Northeast 284 327 3,400 -480 Descending Washington Center
14:10 38.5483 -76.3164 38° Northeast 264 304 3,000 -240 Descending Washington Center
14:11 38.6028 -76.2664 36° Northeast 249 287 3,000 -300 Level Washington Center
14:12 38.6492 -76.2136 42° Northeast 227 261 2,500 -540 Descending Washington Center
14:14 38.7333 -76.1167 42° Northeast 172 198 1,600 -540 Descending Potomac TRACON
14:15 38.7667 -76.1000 21° North 129 148 1,000 -600 Descending Potomac TRACON
14:16 38.7833 -76.0833 38° Northeast 130 150 400 -300 Descending Potomac TRACON
14:17 38.8000 -76.0667 38° Northeast 129 148 400  Level Potomac TRACON